createdAt,value
2023-03-29T00:00:14.165Z,98533.05
2023-03-29T00:02:50.250Z,98530.02
2023-03-29T00:05:19.723Z,98531.52
2023-03-29T00:08:04.575Z,98538.03
2023-03-29T00:11:03.592Z,98536.90
2023-03-29T00:13:36.577Z,98540.61
2023-03-29T00:16:42.247Z,98544.16
2023-03-29T00:19:15.839Z,98540.40
2023-03-29T00:21:43.300Z,98541.20
2023-03-29T00:24:18.862Z,98544.80
2023-03-29T00:26:49.742Z,98545.60
2023-03-29T00:29:16.951Z,98548.55
2023-03-29T00:31:46.156Z,98551.56
2023-03-29T00:34:26.506Z,98552.10
2023-03-29T00:36:58.096Z,98549.22
2023-03-29T00:39:26.561Z,98553.34
2023-03-29T00:41:57.057Z,98561.85
2023-03-29T00:44:46.656Z,98565.56
2023-03-29T00:47:13.959Z,98570.42
2023-03-29T00:49:43.195Z,98573.36
2023-03-29T00:52:10.474Z,98572.80
2023-03-29T00:54:38.059Z,98573.41
2023-03-29T00:57:06.963Z,98576.23
2023-03-29T00:59:35.759Z,98575.27
2023-03-29T01:02:05.455Z,98570.96
2023-03-29T01:04:37.065Z,98570.34
2023-03-29T01:07:31.144Z,98566.27
2023-03-29T01:10:13.349Z,98567.46
2023-03-29T01:12:46.796Z,98563.00
2023-03-29T01:15:21.881Z,98565.24
2023-03-29T01:17:53.862Z,98564.98
2023-03-29T01:20:34.558Z,98569.13
2023-03-29T01:23:22.471Z,98578.59
2023-03-29T01:26:38.256Z,98576.44
2023-03-29T01:29:12.133Z,98575.89
2023-03-29T01:31:49.676Z,98575.85
2023-03-29T01:34:44.748Z,98577.28
2023-03-29T01:37:25.005Z,98576.35
2023-03-29T01:39:52.844Z,98578.34
2023-03-29T01:42:32.896Z,98580.11
2023-03-29T01:45:08.913Z,98579.38
2023-03-29T01:47:48.279Z,98584.52
2023-03-29T01:50:42.806Z,98581.95
2023-03-29T01:53:22.437Z,98592.98
2023-03-29T01:55:55.711Z,98585.56
2023-03-29T01:58:33.897Z,98578.12
2023-03-29T02:01:10.972Z,98572.11
2023-03-29T02:03:42.657Z,98571.30
2023-03-29T02:06:11.557Z,98572.32
2023-03-29T02:08:40.759Z,98569.86
2023-03-29T02:11:08.733Z,98573.73
2023-03-29T02:13:36.117Z,98571.92
2023-03-29T02:16:08.618Z,98568.82
2023-03-29T02:18:36.162Z,98572.40
2023-03-29T02:21:18.251Z,98573.63
2023-03-29T02:23:46.781Z,98582.83
2023-03-29T02:26:14.511Z,98578.86
2023-03-29T02:28:45.493Z,98582.64
2023-03-29T02:31:26.237Z,98580.31
2023-03-29T02:34:08.007Z,98584.25
2023-03-29T02:36:47.619Z,98585.42
2023-03-29T02:39:25.596Z,98579.68
2023-03-29T02:41:53.246Z,98583.24
2023-03-29T02:44:25.045Z,98588.46
2023-03-29T02:46:55.371Z,98593.21
2023-03-29T02:49:22.528Z,98593.16
2023-03-29T02:51:56.180Z,98594.47
2023-03-29T02:54:26.452Z,98597.71
2023-03-29T02:56:57.217Z,98603.13
2023-03-29T02:59:26.153Z,98600.20
2023-03-29T03:01:53.685Z,98596.66
2023-03-29T03:04:25.603Z,98595.14
2023-03-29T03:06:56.077Z,98598.64
2023-03-29T03:09:23.651Z,98604.77
2023-03-29T03:11:54.098Z,98605.02
2023-03-29T03:14:22.987Z,98610.58
2023-03-29T03:16:55.188Z,98606.90
2023-03-29T03:19:23.606Z,98614.58
2023-03-29T03:21:51.910Z,98617.60
2023-03-29T03:24:19.023Z,98623.02
2023-03-29T03:26:47.884Z,98622.55
2023-03-29T03:29:15.819Z,98627.71
2023-03-29T03:32:05.000Z,98629.90
2023-03-29T03:34:53.668Z,98630.64
2023-03-29T03:37:23.948Z,98630.94
2023-03-29T03:39:52.024Z,98634.83
2023-03-29T03:42:20.025Z,98630.36
2023-03-29T03:44:50.175Z,98632.27
2023-03-29T03:47:46.150Z,98633.29
2023-03-29T03:50:24.342Z,98638.13
2023-03-29T03:52:52.232Z,98640.79
2023-03-29T03:55:24.874Z,98643.52
2023-03-29T03:58:03.239Z,98639.71
2023-03-29T04:00:33.421Z,98645.58
2023-03-29T04:03:24.552Z,98650.45
2023-03-29T04:05:52.086Z,98652.91
2023-03-29T04:08:19.881Z,98661.52
2023-03-29T04:11:07.729Z,98661.84
2023-03-29T04:13:38.036Z,98658.66
2023-03-29T04:16:28.618Z,98661.30
2023-03-29T04:19:00.052Z,98659.48
2023-03-29T04:21:28.076Z,98663.02
2023-03-29T04:23:55.848Z,98663.70
2023-03-29T04:26:23.273Z,98663.48
2023-03-29T04:29:11.358Z,98664.91
2023-03-29T04:31:47.247Z,98666.92
2023-03-29T04:34:43.047Z,98667.08
2023-03-29T04:37:22.054Z,98666.37
2023-03-29T04:39:50.706Z,98665.93
2023-03-29T04:42:24.409Z,98664.02
2023-03-29T04:44:53.341Z,98664.41
2023-03-29T04:47:29.816Z,98669.06
2023-03-29T04:50:06.675Z,98671.19
2023-03-29T04:52:42.528Z,98674.16
2023-03-29T04:55:11.889Z,98676.27
2023-03-29T04:58:02.894Z,98684.84
2023-03-29T05:00:39.282Z,98679.06
2023-03-29T05:03:27.134Z,98677.73
2023-03-29T05:06:08.817Z,98675.64
2023-03-29T05:08:39.349Z,98674.73
2023-03-29T05:11:19.956Z,98676.71
2023-03-29T05:13:47.970Z,98676.80
2023-03-29T05:16:17.513Z,98671.15
2023-03-29T05:18:46.229Z,98673.94
2023-03-29T05:21:14.140Z,98673.28
2023-03-29T05:23:45.063Z,98677.98
2023-03-29T05:26:15.390Z,98684.88
2023-03-29T05:28:44.368Z,98686.23
2023-03-29T05:31:14.137Z,98688.66
2023-03-29T05:33:43.542Z,98679.31
2023-03-29T05:36:13.783Z,98678.20
2023-03-29T05:38:46.718Z,98676.60
2023-03-29T05:41:15.875Z,98672.19
2023-03-29T05:44:18.479Z,98677.04
2023-03-29T05:46:47.992Z,98682.25
2023-03-29T05:49:16.740Z,98683.53
2023-03-29T05:52:10.945Z,98682.48
2023-03-29T05:54:39.728Z,98685.50
2023-03-29T05:57:10.067Z,98687.95
2023-03-29T05:59:37.286Z,98691.95
2023-03-29T06:02:06.968Z,98695.48
2023-03-29T06:04:36.635Z,98696.85
2023-03-29T06:07:26.929Z,98699.13
2023-03-29T06:10:33.395Z,98701.02
2023-03-29T06:13:18.687Z,98704.05
2023-03-29T06:15:51.312Z,98706.99
2023-03-29T06:18:20.343Z,98707.79
2023-03-29T06:20:50.401Z,98705.20
2023-03-29T06:23:19.095Z,98707.58
2023-03-29T06:25:48.069Z,98705.63
2023-03-29T06:28:16.543Z,98706.64
2023-03-29T06:30:43.812Z,98705.46
2023-03-29T06:33:12.199Z,98704.97
2023-03-29T06:35:58.143Z,98708.27
2023-03-29T06:38:34.117Z,98702.51
2023-03-29T06:41:16.202Z,98701.83
2023-03-29T06:43:59.106Z,98711.62
2023-03-29T06:46:32.547Z,98721.30
2023-03-29T06:49:06.094Z,98723.45
2023-03-29T06:51:40.227Z,98725.33
2023-03-29T06:54:07.512Z,98727.95
2023-03-29T06:56:42.052Z,98726.59
2023-03-29T06:59:15.252Z,98732.17
2023-03-29T07:02:02.912Z,98729.98
2023-03-29T07:04:46.152Z,98733.33
2023-03-29T07:07:22.319Z,98727.70
2023-03-29T07:09:57.426Z,98728.03
2023-03-29T07:12:50.599Z,98729.35
2023-03-29T07:15:21.599Z,98733.33
2023-03-29T07:18:14.636Z,98726.99
2023-03-29T07:20:43.236Z,98730.34
2023-03-29T07:23:18.084Z,98728.45
2023-03-29T07:25:47.111Z,98729.41
2023-03-29T07:28:14.441Z,98736.40
2023-03-29T07:30:42.431Z,98738.20
2023-03-29T07:33:16.108Z,98740.47
2023-03-29T07:35:51.714Z,98742.42
2023-03-29T07:38:38.922Z,98751.73
2023-03-29T07:41:12.827Z,98750.09
2023-03-29T07:43:52.161Z,98751.86
2023-03-29T07:46:23.568Z,98754.23
2023-03-29T07:48:51.611Z,98756.00
2023-03-29T07:51:18.780Z,98750.15
2023-03-29T07:53:49.800Z,98756.78
2023-03-29T07:56:56.376Z,98755.86
2023-03-29T07:59:39.803Z,98762.45
2023-03-29T08:02:14.118Z,98766.04
2023-03-29T08:04:46.155Z,98760.68
2023-03-29T08:07:19.352Z,98763.56
2023-03-29T08:10:06.889Z,98764.66
2023-03-29T08:12:54.803Z,98777.52
2023-03-29T08:15:28.939Z,98775.95
2023-03-29T08:17:56.426Z,98768.00
2023-03-29T08:20:33.786Z,98764.11
2023-03-29T08:23:02.723Z,98761.64
2023-03-29T08:25:49.749Z,98765.61
2023-03-29T08:28:18.625Z,98764.36
2023-03-29T08:30:49.914Z,98765.42
2023-03-29T08:33:17.472Z,98770.34
2023-03-29T08:35:45.235Z,98773.52
2023-03-29T08:38:21.874Z,98770.82
2023-03-29T08:40:49.896Z,98765.38
2023-03-29T08:43:32.016Z,98768.06
2023-03-29T08:46:37.287Z,98765.95
2023-03-29T08:49:14.516Z,98772.79
2023-03-29T08:51:47.406Z,98766.86
2023-03-29T08:54:27.154Z,98771.23
2023-03-29T08:57:35.201Z,98779.34
2023-03-29T09:00:06.756Z,98771.00
2023-03-29T09:02:37.599Z,98769.20
2023-03-29T09:05:29.159Z,98767.18
2023-03-29T09:08:17.365Z,98767.31
2023-03-29T09:11:00.902Z,98768.33
2023-03-29T09:13:58.919Z,98769.53
2023-03-29T09:16:54.718Z,98775.02
2023-03-29T09:19:30.914Z,98774.20
2023-03-29T09:22:16.158Z,98775.29
2023-03-29T09:24:55.020Z,98771.88
2023-03-29T09:27:26.610Z,98767.95
2023-03-29T09:30:35.598Z,98767.38
2023-03-29T09:33:13.830Z,98768.80
2023-03-29T09:36:32.425Z,98768.67
2023-03-29T09:39:04.024Z,98762.86
2023-03-29T09:41:39.280Z,98763.69
2023-03-29T09:46:56.557Z,98759.44
2023-03-29T09:49:28.900Z,98756.21
2023-03-29T09:51:57.433Z,98753.83
2023-03-29T09:54:24.569Z,98764.14
2023-03-29T09:57:15.960Z,98762.41
2023-03-29T09:59:44.852Z,98754.52
2023-03-29T10:02:13.546Z,98759.13
2023-03-29T10:04:44.947Z,98758.64
2023-03-29T10:07:19.138Z,98753.00
2023-03-29T10:09:47.912Z,98752.57
2023-03-29T10:18:56.555Z,98748.01
2023-03-29T10:21:26.195Z,98754.58
2023-03-29T10:23:58.539Z,98748.75
2023-03-29T10:26:33.008Z,98747.09
2023-03-29T10:29:03.178Z,98744.86
2023-03-29T10:31:33.660Z,98741.68
2023-03-29T10:34:03.161Z,98737.35
2023-03-29T10:36:30.383Z,98740.83
2023-03-29T10:38:59.488Z,98743.77
2023-03-29T10:41:27.559Z,98745.55
2023-03-29T10:43:55.041Z,98741.36
2023-03-29T10:46:27.251Z,98743.14
2023-03-29T10:49:05.087Z,98734.59
2023-03-29T10:51:32.581Z,98744.64
2023-03-29T10:53:59.701Z,98741.23
2023-03-29T10:56:34.455Z,98739.52
2023-03-29T10:59:14.765Z,98738.02
2023-03-29T11:01:42.885Z,98735.30
2023-03-29T11:04:20.912Z,98738.69
2023-03-29T11:06:56.532Z,98721.33
2023-03-29T11:09:42.265Z,98731.05
2023-03-29T11:12:28.678Z,98727.66
2023-03-29T11:15:20.886Z,98727.85
2023-03-29T11:18:26.189Z,98725.07
2023-03-29T11:21:10.339Z,98716.83
2023-03-29T11:24:15.863Z,98716.47
2023-03-29T11:27:09.568Z,98715.33
2023-03-29T11:29:58.695Z,98712.41
2023-03-29T11:32:32.158Z,98712.66
2023-03-29T11:35:18.634Z,98708.65
2023-03-29T11:38:09.956Z,98703.70
2023-03-29T11:40:49.567Z,98702.52
2023-03-29T11:43:23.003Z,98700.30
2023-03-29T11:46:00.123Z,98699.61
2023-03-29T11:48:34.662Z,98695.02
2023-03-29T11:51:06.888Z,98687.46
2023-03-29T11:53:39.457Z,98693.81
2023-03-29T11:56:15.549Z,98694.95
2023-03-29T11:58:46.761Z,98694.94
2023-03-29T12:01:16.671Z,98688.60
2023-03-29T12:03:50.970Z,98688.08
2023-03-29T12:06:24.034Z,98689.34
2023-03-29T12:09:16.208Z,98694.59
2023-03-29T12:11:50.512Z,98688.39
2023-03-29T12:14:21.889Z,98689.36
2023-03-29T12:17:02.362Z,98681.86
2023-03-29T12:19:31.999Z,98699.59
2023-03-29T12:21:59.261Z,98689.23
2023-03-29T12:24:29.268Z,98692.69
2023-03-29T12:26:59.313Z,98695.65
2023-03-29T12:29:26.786Z,98697.85
2023-03-29T12:32:03.061Z,98698.31
2023-03-29T12:34:38.529Z,98709.52
2023-03-29T12:37:59.969Z,98703.98
2023-03-29T12:40:49.041Z,98702.58
2023-03-29T12:43:48.181Z,98702.30
2023-03-29T12:46:28.184Z,98697.39
2023-03-29T12:48:57.418Z,98701.81
2023-03-29T12:51:29.876Z,98703.52
2023-03-29T12:54:26.769Z,98701.84
2023-03-29T12:57:18.909Z,98696.82
2023-03-29T12:59:47.636Z,98692.70
2023-03-29T13:02:14.862Z,98706.04
2023-03-29T13:04:58.192Z,98697.44
2023-03-29T13:07:28.710Z,98701.23
2023-03-29T13:10:00.239Z,98709.03
2023-03-29T13:12:51.116Z,98701.96
2023-03-29T13:15:18.368Z,98694.45
2023-03-29T13:18:01.317Z,98698.55
2023-03-29T13:21:11.685Z,98698.78
2023-03-29T13:24:09.124Z,98707.05
2023-03-29T13:26:43.391Z,98696.23
2023-03-29T13:29:35.985Z,98689.85
2023-03-29T13:32:14.285Z,98693.31
2023-03-29T13:34:54.186Z,98686.10
2023-03-29T13:37:24.382Z,98688.15
2023-03-29T13:39:53.512Z,98690.42
2023-03-29T13:42:37.604Z,98690.95
2023-03-29T13:45:16.803Z,98691.44
2023-03-29T13:47:58.374Z,98698.33
2023-03-29T13:50:38.474Z,98699.46
2023-03-29T13:53:36.647Z,98699.27
2023-03-29T13:56:05.748Z,98687.01
2023-03-29T13:58:53.784Z,98695.58
2023-03-29T14:01:43.726Z,98699.66
2023-03-29T14:04:16.319Z,98692.92
2023-03-29T14:06:45.235Z,98702.02
2023-03-29T14:09:12.736Z,98701.98
2023-03-29T14:11:44.436Z,98700.73
2023-03-29T14:14:11.617Z,98700.79
2023-03-29T14:16:40.728Z,98702.45
2023-03-29T14:19:13.547Z,98704.77
2023-03-29T14:21:41.857Z,98703.80
2023-03-29T14:24:18.438Z,98701.29
2023-03-29T14:26:46.941Z,98696.96
2023-03-29T14:29:18.367Z,98695.72
2023-03-29T14:31:46.986Z,98698.98
2023-03-29T14:34:18.676Z,98702.11
2023-03-29T14:36:48.976Z,98700.70
2023-03-29T14:39:21.209Z,98706.14
2023-03-29T14:41:59.416Z,98709.52
2023-03-29T14:44:35.536Z,98709.27
2023-03-29T14:47:03.450Z,98709.63
2023-03-29T14:49:31.405Z,98712.77
2023-03-29T14:52:00.304Z,98710.96
2023-03-29T14:54:33.494Z,98716.55
2023-03-29T14:57:06.711Z,98710.88
2023-03-29T14:59:34.413Z,98716.32
2023-03-29T15:02:04.995Z,98715.26
2023-03-29T15:04:35.976Z,98714.08
2023-03-29T15:07:06.174Z,98718.30
2023-03-29T15:09:34.399Z,98720.39
2023-03-29T15:12:02.272Z,98716.66
2023-03-29T15:14:33.854Z,98713.54
2023-03-29T15:17:21.789Z,98713.46
2023-03-29T15:19:57.374Z,98711.52
2023-03-29T15:22:32.342Z,98707.34
2023-03-29T15:24:59.413Z,98708.06
2023-03-29T15:27:26.581Z,98706.71
2023-03-29T15:30:01.369Z,98708.38
2023-03-29T15:32:34.385Z,98713.11
2023-03-29T15:35:03.519Z,98714.75
2023-03-29T15:37:31.456Z,98716.92
2023-03-29T15:39:58.970Z,98719.08
2023-03-29T15:42:26.673Z,98718.52
2023-03-29T15:44:54.967Z,98720.98
2023-03-29T15:47:22.266Z,98720.73
2023-03-29T15:49:49.408Z,98726.58
2023-03-29T15:52:18.326Z,98719.17
2023-03-29T15:54:45.886Z,98725.88
2023-03-29T15:57:14.257Z,98725.21
2023-03-29T15:59:44.459Z,98728.23
2023-03-29T16:02:16.340Z,98730.23
2023-03-29T16:04:46.487Z,98733.66
2023-03-29T16:07:15.373Z,98735.06
2023-03-29T16:09:43.068Z,98738.95
2023-03-29T16:12:10.573Z,98739.30
2023-03-29T16:14:37.752Z,98742.10
2023-03-29T16:17:05.983Z,98741.47
2023-03-29T16:19:36.694Z,98742.26
2023-03-29T16:22:07.440Z,98746.11
2023-03-29T16:24:35.620Z,98746.44
2023-03-29T16:27:04.407Z,98751.70
2023-03-29T16:29:32.529Z,98757.64
2023-03-29T16:31:59.783Z,98764.55
2023-03-29T16:34:26.866Z,98760.52
2023-03-29T16:36:54.224Z,98759.54
2023-03-29T16:39:29.339Z,98763.61
2023-03-29T16:41:56.813Z,98771.69
2023-03-29T16:44:25.749Z,98771.11
2023-03-29T16:46:58.411Z,98772.27
2023-03-29T16:49:25.986Z,98774.88
2023-03-29T16:52:01.487Z,98776.23
2023-03-29T16:54:32.692Z,98782.54
2023-03-29T16:56:59.730Z,98782.64
2023-03-29T16:59:27.152Z,98782.39
2023-03-29T17:01:54.915Z,98785.56
2023-03-29T17:04:22.300Z,98786.49
2023-03-29T17:06:49.725Z,98791.35
2023-03-29T17:09:17.701Z,98791.66
2023-03-29T17:11:44.965Z,98793.77
2023-03-29T17:14:12.813Z,98798.41
2023-03-29T17:16:40.665Z,98798.34
2023-03-29T17:19:07.929Z,98799.05
2023-03-29T17:21:35.103Z,98800.60
2023-03-29T17:24:04.992Z,98801.77
2023-03-29T17:26:32.845Z,98803.27
2023-03-29T17:28:59.942Z,98804.55
2023-03-29T17:31:28.065Z,98805.27
2023-03-29T17:33:55.776Z,98809.51
2023-03-29T17:36:33.806Z,98814.81
2023-03-29T17:39:03.152Z,98813.75
2023-03-29T17:41:31.171Z,98816.36
2023-03-29T17:43:59.348Z,98815.41
2023-03-29T17:46:26.394Z,98819.23
2023-03-29T17:48:53.679Z,98824.30
2023-03-29T17:51:21.192Z,98828.61
2023-03-29T17:53:48.309Z,98830.38
2023-03-29T17:56:16.306Z,98834.16
2023-03-29T17:58:43.768Z,98840.40
2023-03-29T18:01:19.587Z,98841.40
2023-03-29T18:03:47.794Z,98842.52
2023-03-29T18:06:18.108Z,98842.30
2023-03-29T18:08:45.411Z,98843.25
2023-03-29T18:11:18.864Z,98844.61
2023-03-29T18:13:47.926Z,98846.83
2023-03-29T18:16:19.325Z,98850.27
2023-03-29T18:18:46.964Z,98847.55
2023-03-29T18:21:15.087Z,98847.04
2023-03-29T18:23:45.137Z,98853.09
2023-03-29T18:26:12.829Z,98855.19
2023-03-29T18:28:42.382Z,98855.36
2023-03-29T18:31:09.644Z,98854.98
2023-03-29T18:33:37.760Z,98855.54
2023-03-29T18:36:11.912Z,98854.39
2023-03-29T18:38:40.641Z,98857.99
2023-03-29T18:41:12.290Z,98860.48
2023-03-29T18:43:40.049Z,98864.55
2023-03-29T18:46:07.904Z,98867.08
2023-03-29T18:48:42.051Z,98869.00
2023-03-29T18:51:10.133Z,98876.95
2023-03-29T18:53:37.845Z,98878.55
2023-03-29T18:56:06.571Z,98882.39
2023-03-29T18:58:33.788Z,98883.50
2023-03-29T19:01:05.491Z,98883.29
2023-03-29T19:03:34.416Z,98882.73
2023-03-29T19:06:02.192Z,98885.39
2023-03-29T19:08:34.763Z,98884.70
2023-03-29T19:11:03.487Z,98885.22
2023-03-29T19:13:30.581Z,98884.89
2023-03-29T19:15:57.736Z,98883.27
2023-03-29T19:18:25.280Z,98885.54
2023-03-29T19:20:54.136Z,98887.21
2023-03-29T19:23:23.212Z,98885.92
2023-03-29T19:25:56.687Z,98891.23
2023-03-29T19:28:27.381Z,98887.95
2023-03-29T19:30:55.972Z,98888.73
2023-03-29T19:33:23.621Z,98895.71
2023-03-29T19:35:51.757Z,98896.36
2023-03-29T19:38:19.773Z,98894.77
2023-03-29T19:40:50.979Z,98895.73
2023-03-29T19:43:20.748Z,98900.05
2023-03-29T19:45:49.923Z,98898.98
2023-03-29T19:50:47.952Z,98895.41
2023-03-29T19:53:15.269Z,98896.77
2023-03-29T19:55:46.302Z,98896.09
2023-03-29T19:58:13.676Z,98899.30
2023-03-29T20:00:42.017Z,98897.69
2023-03-29T20:03:10.588Z,98896.27
2023-03-29T20:05:38.942Z,98896.69
2023-03-29T20:08:06.979Z,98900.95
2023-03-29T20:10:34.710Z,98904.88
2023-03-29T20:13:03.197Z,98905.31
2023-03-29T20:15:30.434Z,98904.58
2023-03-29T20:17:59.835Z,98905.04
2023-03-29T20:20:49.455Z,98905.04
2023-03-29T20:23:17.247Z,98903.88
2023-03-29T20:25:44.438Z,98905.43
2023-03-29T20:28:12.822Z,98903.98
2023-03-29T20:30:41.820Z,98909.35
2023-03-29T20:33:09.149Z,98907.95
2023-03-29T20:35:39.537Z,98909.98
2023-03-29T20:38:16.217Z,98913.80
2023-03-29T20:40:45.074Z,98910.40
2023-03-29T20:43:13.732Z,98912.14
2023-03-29T20:45:52.798Z,98913.27
2023-03-29T20:48:24.352Z,98909.35
2023-03-29T20:50:52.327Z,98910.77
2023-03-29T20:53:20.815Z,98916.63
2023-03-29T20:55:52.345Z,98915.47
2023-03-29T20:58:43.783Z,98917.12
2023-03-29T21:01:14.209Z,98914.37
2023-03-29T21:03:43.414Z,98916.68
2023-03-29T21:06:14.103Z,98921.92
2023-03-29T21:08:43.873Z,98916.07
2023-03-29T21:11:16.358Z,98917.18
2023-03-29T21:13:48.741Z,98916.54
2023-03-29T21:16:18.321Z,98915.40
2023-03-29T21:18:56.673Z,98917.13
2023-03-29T21:21:29.756Z,98919.83
2023-03-29T21:23:56.878Z,98919.36
2023-03-29T21:26:24.081Z,98920.95
2023-03-29T21:28:51.117Z,98923.21
2023-03-29T21:31:18.427Z,98924.98
2023-03-29T21:33:45.945Z,98924.73
2023-03-29T21:36:14.267Z,98928.86
2023-03-29T21:38:41.459Z,98932.92
2023-03-29T21:41:12.130Z,98933.77
2023-03-29T21:43:39.353Z,98934.66
2023-03-29T21:46:07.116Z,98935.56
2023-03-29T21:48:37.648Z,98933.36
2023-03-29T21:51:06.456Z,98937.84
2023-03-29T21:53:41.941Z,98933.35
2023-03-29T21:56:09.479Z,98939.56
2023-03-29T21:58:36.829Z,98935.89
2023-03-29T22:01:07.454Z,98938.32
2023-03-29T22:03:37.448Z,98942.15
2023-03-29T22:06:10.539Z,98943.88
2023-03-29T22:08:40.591Z,98944.45
2023-03-29T22:11:09.917Z,98946.41
2023-03-29T22:13:40.754Z,98944.27
2023-03-29T22:16:13.803Z,98945.98
2023-03-29T22:18:44.602Z,98946.34
2023-03-29T22:21:23.432Z,98953.16
2023-03-29T22:23:52.159Z,98961.41
2023-03-29T22:26:21.574Z,98957.18
2023-03-29T22:28:52.544Z,98960.41
2023-03-29T22:31:20.807Z,98961.19
2023-03-29T22:33:48.251Z,98961.23
2023-03-29T22:36:21.111Z,98963.70
2023-03-29T22:38:48.769Z,98961.05
2023-03-29T22:41:19.397Z,98966.38
2023-03-29T22:43:47.530Z,98963.80
2023-03-29T22:46:19.114Z,98968.54
2023-03-29T22:48:46.381Z,98961.73
2023-03-29T22:51:13.432Z,98961.80
2023-03-29T22:53:42.059Z,98966.05
2023-03-29T22:56:09.696Z,98961.09
2023-03-29T22:58:38.068Z,98960.34
2023-03-29T23:01:05.890Z,98964.10
2023-03-29T23:03:33.464Z,98962.91
2023-03-29T23:06:04.152Z,98963.48
2023-03-29T23:08:32.503Z,98968.13
2023-03-29T23:11:04.427Z,98965.67
2023-03-29T23:13:35.267Z,98969.10
2023-03-29T23:16:03.855Z,98972.23
2023-03-29T23:18:37.716Z,98967.20
2023-03-29T23:21:09.402Z,98969.77
2023-03-29T23:23:36.892Z,98968.88
2023-03-29T23:26:05.016Z,98973.86
2023-03-29T23:28:34.531Z,98976.89
2023-03-29T23:31:12.353Z,98980.15
2023-03-29T23:33:41.360Z,98978.02
2023-03-29T23:36:13.395Z,98975.52
2023-03-29T23:38:51.429Z,98974.74
2023-03-29T23:41:20.245Z,98971.80
2023-03-29T23:43:53.640Z,98970.17
2023-03-29T23:46:21.456Z,98968.13
2023-03-29T23:48:49.209Z,98963.37
2023-03-29T23:51:23.351Z,98963.07
2023-03-29T23:53:50.650Z,98964.15
2023-03-29T23:56:22.155Z,98966.64
2023-03-29T23:58:51.814Z,98970.45
